sensor_id;sensor_type;location;lat;lon;timestamp;P1;durP1;ratioP1;P2;durP2;ratioP2
84135;SDS011;74238;50.566;7.262;2024-01-30T00:01:09;15.40;;;10.20;;
84135;SDS011;74238;50.566;7.262;2024-01-30T00:03:34;17.73;;;10.38;;
84135;SDS011;74238;50.566;7.262;2024-01-30T00:05:59;12.95;;;9.95;;
84135;SDS011;74238;50.566;7.262;2024-01-30T00:08:24;16.40;;;9.82;;
84135;SDS011;74238;50.566;7.262;2024-01-30T00:10:50;15.70;;;9.48;;
84135;SDS011;74238;50.566;7.262;2024-01-30T00:13:15;14.82;;;9.23;;
84135;SDS011;74238;50.566;7.262;2024-01-30T00:15:42;15.25;;;9.90;;
84135;SDS011;74238;50.566;7.262;2024-01-30T00:18:08;14.68;;;8.80;;
84135;SDS011;74238;50.566;7.262;2024-01-30T00:20:33;17.95;;;9.85;;
84135;SDS011;74238;50.566;7.262;2024-01-30T00:22:58;17.13;;;9.82;;
84135;SDS011;74238;50.566;7.262;2024-01-30T00:25:24;19.17;;;9.38;;
84135;SDS011;74238;50.566;7.262;2024-01-30T00:27:49;12.93;;;9.05;;
84135;SDS011;74238;50.566;7.262;2024-01-30T00:30:14;14.75;;;9.95;;
84135;SDS011;74238;50.566;7.262;2024-01-30T00:32:40;12.52;;;9.20;;
84135;SDS011;74238;50.566;7.262;2024-01-30T00:35:05;15.40;;;9.13;;
84135;SDS011;74238;50.566;7.262;2024-01-30T00:37:31;16.02;;;9.80;;
84135;SDS011;74238;50.566;7.262;2024-01-30T00:39:56;18.50;;;10.52;;
84135;SDS011;74238;50.566;7.262;2024-01-30T00:42:22;15.48;;;10.45;;
84135;SDS011;74238;50.566;7.262;2024-01-30T00:44:48;13.88;;;10.38;;
84135;SDS011;74238;50.566;7.262;2024-01-30T00:47:14;16.35;;;10.10;;
84135;SDS011;74238;50.566;7.262;2024-01-30T00:49:39;18.25;;;10.25;;
84135;SDS011;74238;50.566;7.262;2024-01-30T00:52:05;17.58;;;10.25;;
84135;SDS011;74238;50.566;7.262;2024-01-30T00:54:30;18.02;;;10.18;;
84135;SDS011;74238;50.566;7.262;2024-01-30T00:56:55;14.77;;;10.18;;
84135;SDS011;74238;50.566;7.262;2024-01-30T00:59:21;16.38;;;10.63;;
84135;SDS011;74238;50.566;7.262;2024-01-30T01:01:47;15.45;;;11.57;;
84135;SDS011;74238;50.566;7.262;2024-01-30T01:04:12;14.10;;;10.00;;
84135;SDS011;74238;50.566;7.262;2024-01-30T01:06:37;12.70;;;8.85;;
84135;SDS011;74238;50.566;7.262;2024-01-30T01:09:03;18.10;;;10.60;;
84135;SDS011;74238;50.566;7.262;2024-01-30T01:11:29;16.20;;;10.88;;
84135;SDS011;74238;50.566;7.262;2024-01-30T01:13:54;15.57;;;10.75;;
84135;SDS011;74238;50.566;7.262;2024-01-30T01:16:19;16.85;;;10.68;;
84135;SDS011;74238;50.566;7.262;2024-01-30T01:18:45;17.83;;;10.25;;
84135;SDS011;74238;50.566;7.262;2024-01-30T01:21:10;14.25;;;9.20;;
84135;SDS011;74238;50.566;7.262;2024-01-30T01:23:35;17.02;;;11.57;;
84135;SDS011;74238;50.566;7.262;2024-01-30T01:26:01;15.93;;;10.85;;
84135;SDS011;74238;50.566;7.262;2024-01-30T01:28:26;18.48;;;10.80;;
84135;SDS011;74238;50.566;7.262;2024-01-30T01:30:52;15.82;;;9.88;;
84135;SDS011;74238;50.566;7.262;2024-01-30T01:33:17;15.82;;;10.00;;
84135;SDS011;74238;50.566;7.262;2024-01-30T01:35:42;17.90;;;10.00;;
84135;SDS011;74238;50.566;7.262;2024-01-30T01:38:08;17.08;;;10.68;;
84135;SDS011;74238;50.566;7.262;2024-01-30T01:40:33;15.23;;;10.32;;
84135;SDS011;74238;50.566;7.262;2024-01-30T01:42:58;18.08;;;9.23;;
84135;SDS011;74238;50.566;7.262;2024-01-30T01:45:27;18.80;;;11.00;;
84135;SDS011;74238;50.566;7.262;2024-01-30T01:47:53;14.15;;;9.25;;
84135;SDS011;74238;50.566;7.262;2024-01-30T01:50:19;17.00;;;10.55;;
84135;SDS011;74238;50.566;7.262;2024-01-30T01:52:49;19.55;;;10.68;;
84135;SDS011;74238;50.566;7.262;2024-01-30T01:55:16;15.85;;;10.18;;
84135;SDS011;74238;50.566;7.262;2024-01-30T01:57:46;16.20;;;9.27;;
84135;SDS011;74238;50.566;7.262;2024-01-30T02:00:12;13.80;;;9.85;;
84135;SDS011;74238;50.566;7.262;2024-01-30T02:02:39;16.77;;;11.50;;
84135;SDS011;74238;50.566;7.262;2024-01-30T02:05:04;21.95;;;10.55;;
84135;SDS011;74238;50.566;7.262;2024-01-30T02:07:30;14.38;;;9.85;;
84135;SDS011;74238;50.566;7.262;2024-01-30T02:09:56;17.15;;;9.38;;
84135;SDS011;74238;50.566;7.262;2024-01-30T02:12:21;14.75;;;9.77;;
84135;SDS011;74238;50.566;7.262;2024-01-30T02:14:47;15.68;;;9.07;;
84135;SDS011;74238;50.566;7.262;2024-01-30T02:17:13;17.42;;;10.85;;
84135;SDS011;74238;50.566;7.262;2024-01-30T02:19:41;15.43;;;9.30;;
84135;SDS011;74238;50.566;7.262;2024-01-30T02:22:07;13.93;;;9.30;;
84135;SDS011;74238;50.566;7.262;2024-01-30T02:24:33;13.80;;;9.57;;
84135;SDS011;74238;50.566;7.262;2024-01-30T02:26:59;17.98;;;10.52;;
84135;SDS011;74238;50.566;7.262;2024-01-30T02:29:24;17.00;;;10.88;;
84135;SDS011;74238;50.566;7.262;2024-01-30T02:31:49;15.00;;;10.77;;
84135;SDS011;74238;50.566;7.262;2024-01-30T02:34:15;17.73;;;10.35;;
84135;SDS011;74238;50.566;7.262;2024-01-30T02:36:43;15.55;;;10.13;;
84135;SDS011;74238;50.566;7.262;2024-01-30T02:39:09;18.27;;;10.77;;
84135;SDS011;74238;50.566;7.262;2024-01-30T02:41:34;14.63;;;10.25;;
84135;SDS011;74238;50.566;7.262;2024-01-30T02:44:00;13.25;;;9.57;;
84135;SDS011;74238;50.566;7.262;2024-01-30T02:46:25;15.73;;;10.48;;
84135;SDS011;74238;50.566;7.262;2024-01-30T02:48:51;16.02;;;9.80;;
84135;SDS011;74238;50.566;7.262;2024-01-30T02:51:16;16.95;;;10.40;;
84135;SDS011;74238;50.566;7.262;2024-01-30T02:53:41;14.85;;;10.52;;
84135;SDS011;74238;50.566;7.262;2024-01-30T02:56:07;14.30;;;9.82;;
84135;SDS011;74238;50.566;7.262;2024-01-30T02:58:34;13.95;;;10.50;;
84135;SDS011;74238;50.566;7.262;2024-01-30T03:01:00;15.25;;;9.57;;
84135;SDS011;74238;50.566;7.262;2024-01-30T03:03:25;16.20;;;10.35;;
84135;SDS011;74238;50.566;7.262;2024-01-30T03:05:51;15.75;;;9.50;;
84135;SDS011;74238;50.566;7.262;2024-01-30T03:08:16;16.45;;;9.38;;
84135;SDS011;74238;50.566;7.262;2024-01-30T03:10:41;18.92;;;11.25;;
84135;SDS011;74238;50.566;7.262;2024-01-30T03:13:06;16.80;;;10.20;;
84135;SDS011;74238;50.566;7.262;2024-01-30T03:15:32;21.23;;;11.68;;
84135;SDS011;74238;50.566;7.262;2024-01-30T03:17:57;19.73;;;10.70;;
84135;SDS011;74238;50.566;7.262;2024-01-30T03:20:22;20.10;;;11.00;;
84135;SDS011;74238;50.566;7.262;2024-01-30T03:22:48;14.77;;;10.30;;
84135;SDS011;74238;50.566;7.262;2024-01-30T03:25:13;17.08;;;10.75;;
84135;SDS011;74238;50.566;7.262;2024-01-30T03:27:38;15.05;;;9.75;;
84135;SDS011;74238;50.566;7.262;2024-01-30T03:30:04;17.05;;;10.23;;
84135;SDS011;74238;50.566;7.262;2024-01-30T03:32:30;16.40;;;10.13;;
84135;SDS011;74238;50.566;7.262;2024-01-30T03:34:55;14.07;;;9.50;;
84135;SDS011;74238;50.566;7.262;2024-01-30T03:37:20;16.30;;;9.75;;
84135;SDS011;74238;50.566;7.262;2024-01-30T03:39:46;17.10;;;10.50;;
84135;SDS011;74238;50.566;7.262;2024-01-30T03:42:11;16.15;;;11.30;;
84135;SDS011;74238;50.566;7.262;2024-01-30T03:44:36;15.85;;;10.07;;
84135;SDS011;74238;50.566;7.262;2024-01-30T03:47:02;16.60;;;11.00;;
84135;SDS011;74238;50.566;7.262;2024-01-30T03:49:27;15.23;;;10.00;;
84135;SDS011;74238;50.566;7.262;2024-01-30T03:51:52;15.55;;;10.30;;
84135;SDS011;74238;50.566;7.262;2024-01-30T03:54:18;16.55;;;10.40;;
84135;SDS011;74238;50.566;7.262;2024-01-30T03:56:43;14.43;;;10.07;;
84135;SDS011;74238;50.566;7.262;2024-01-30T03:59:08;18.73;;;11.07;;
84135;SDS011;74238;50.566;7.262;2024-01-30T04:01:34;16.55;;;10.77;;
84135;SDS011;74238;50.566;7.262;2024-01-30T04:03:59;15.85;;;11.02;;
84135;SDS011;74238;50.566;7.262;2024-01-30T04:06:24;14.25;;;10.15;;
84135;SDS011;74238;50.566;7.262;2024-01-30T04:08:49;20.05;;;11.27;;
84135;SDS011;74238;50.566;7.262;2024-01-30T04:11:15;13.85;;;9.70;;
84135;SDS011;74238;50.566;7.262;2024-01-30T04:13:44;17.17;;;10.27;;
84135;SDS011;74238;50.566;7.262;2024-01-30T04:16:18;15.60;;;10.05;;
84135;SDS011;74238;50.566;7.262;2024-01-30T04:18:47;17.52;;;9.68;;
84135;SDS011;74238;50.566;7.262;2024-01-30T04:21:12;18.60;;;10.88;;
84135;SDS011;74238;50.566;7.262;2024-01-30T04:23:39;18.08;;;10.52;;
84135;SDS011;74238;50.566;7.262;2024-01-30T04:26:07;20.00;;;10.98;;
84135;SDS011;74238;50.566;7.262;2024-01-30T04:28:32;16.27;;;10.25;;
84135;SDS011;74238;50.566;7.262;2024-01-30T04:30:58;20.33;;;10.85;;
84135;SDS011;74238;50.566;7.262;2024-01-30T04:33:23;19.38;;;10.18;;
84135;SDS011;74238;50.566;7.262;2024-01-30T04:35:48;19.20;;;11.95;;
84135;SDS011;74238;50.566;7.262;2024-01-30T04:38:14;14.77;;;9.77;;
84135;SDS011;74238;50.566;7.262;2024-01-30T04:40:39;14.20;;;9.43;;
84135;SDS011;74238;50.566;7.262;2024-01-30T04:43:05;16.60;;;9.80;;
84135;SDS011;74238;50.566;7.262;2024-01-30T04:45:30;15.55;;;9.88;;
84135;SDS011;74238;50.566;7.262;2024-01-30T04:47:56;17.00;;;9.60;;
84135;SDS011;74238;50.566;7.262;2024-01-30T04:50:21;15.95;;;10.25;;
84135;SDS011;74238;50.566;7.262;2024-01-30T04:52:48;16.48;;;11.05;;
84135;SDS011;74238;50.566;7.262;2024-01-30T04:55:13;19.98;;;11.27;;
84135;SDS011;74238;50.566;7.262;2024-01-30T04:57:39;16.13;;;10.02;;
84135;SDS011;74238;50.566;7.262;2024-01-30T05:00:04;15.63;;;9.82;;
84135;SDS011;74238;50.566;7.262;2024-01-30T05:02:30;16.70;;;9.95;;
84135;SDS011;74238;50.566;7.262;2024-01-30T05:04:55;15.63;;;10.70;;
84135;SDS011;74238;50.566;7.262;2024-01-30T05:07:21;16.95;;;9.27;;
84135;SDS011;74238;50.566;7.262;2024-01-30T05:09:46;15.73;;;9.68;;
84135;SDS011;74238;50.566;7.262;2024-01-30T05:12:12;15.63;;;10.38;;
84135;SDS011;74238;50.566;7.262;2024-01-30T05:14:37;20.45;;;10.73;;
84135;SDS011;74238;50.566;7.262;2024-01-30T05:17:02;14.60;;;9.73;;
84135;SDS011;74238;50.566;7.262;2024-01-30T05:19:28;16.10;;;9.95;;
84135;SDS011;74238;50.566;7.262;2024-01-30T05:21:54;17.67;;;10.73;;
84135;SDS011;74238;50.566;7.262;2024-01-30T05:24:19;14.85;;;10.23;;
84135;SDS011;74238;50.566;7.262;2024-01-30T05:26:44;18.73;;;10.23;;
84135;SDS011;74238;50.566;7.262;2024-01-30T05:29:10;18.08;;;11.02;;
84135;SDS011;74238;50.566;7.262;2024-01-30T05:31:35;14.13;;;9.98;;
84135;SDS011;74238;50.566;7.262;2024-01-30T05:34:01;18.73;;;11.07;;
84135;SDS011;74238;50.566;7.262;2024-01-30T05:36:26;16.40;;;10.05;;
84135;SDS011;74238;50.566;7.262;2024-01-30T05:38:52;15.80;;;10.32;;
84135;SDS011;74238;50.566;7.262;2024-01-30T05:41:18;14.50;;;9.88;;
84135;SDS011;74238;50.566;7.262;2024-01-30T05:43:43;17.33;;;10.95;;
84135;SDS011;74238;50.566;7.262;2024-01-30T05:46:09;18.55;;;10.30;;
84135;SDS011;74238;50.566;7.262;2024-01-30T05:48:34;18.02;;;11.13;;
84135;SDS011;74238;50.566;7.262;2024-01-30T05:51:00;17.52;;;9.85;;
84135;SDS011;74238;50.566;7.262;2024-01-30T05:53:26;19.40;;;12.68;;
84135;SDS011;74238;50.566;7.262;2024-01-30T05:55:51;14.32;;;10.20;;
84135;SDS011;74238;50.566;7.262;2024-01-30T05:58:16;14.98;;;9.30;;
84135;SDS011;74238;50.566;7.262;2024-01-30T06:00:42;17.27;;;11.27;;
84135;SDS011;74238;50.566;7.262;2024-01-30T06:03:07;16.45;;;9.70;;
84135;SDS011;74238;50.566;7.262;2024-01-30T06:05:32;20.65;;;12.15;;
84135;SDS011;74238;50.566;7.262;2024-01-30T06:07:58;14.65;;;10.40;;
84135;SDS011;74238;50.566;7.262;2024-01-30T06:10:23;19.35;;;12.00;;
84135;SDS011;74238;50.566;7.262;2024-01-30T06:12:48;16.65;;;10.45;;
84135;SDS011;74238;50.566;7.262;2024-01-30T06:15:14;17.55;;;11.38;;
84135;SDS011;74238;50.566;7.262;2024-01-30T06:17:39;16.35;;;9.73;;
84135;SDS011;74238;50.566;7.262;2024-01-30T06:20:05;14.68;;;10.65;;
84135;SDS011;74238;50.566;7.262;2024-01-30T06:22:31;15.55;;;10.40;;
84135;SDS011;74238;50.566;7.262;2024-01-30T06:24:56;17.60;;;10.02;;
84135;SDS011;74238;50.566;7.262;2024-01-30T06:27:22;18.38;;;11.05;;
84135;SDS011;74238;50.566;7.262;2024-01-30T06:29:47;18.65;;;10.75;;
84135;SDS011;74238;50.566;7.262;2024-01-30T06:32:12;16.45;;;10.43;;
84135;SDS011;74238;50.566;7.262;2024-01-30T06:34:38;17.60;;;11.60;;
84135;SDS011;74238;50.566;7.262;2024-01-30T06:37:04;16.80;;;11.13;;
84135;SDS011;74238;50.566;7.262;2024-01-30T06:39:30;20.67;;;10.63;;
84135;SDS011;74238;50.566;7.262;2024-01-30T06:41:55;16.17;;;10.85;;
84135;SDS011;74238;50.566;7.262;2024-01-30T06:44:21;16.33;;;11.00;;
84135;SDS011;74238;50.566;7.262;2024-01-30T06:46:46;15.27;;;10.70;;
84135;SDS011;74238;50.566;7.262;2024-01-30T06:49:11;17.00;;;10.50;;
84135;SDS011;74238;50.566;7.262;2024-01-30T06:51:37;21.70;;;11.95;;
84135;SDS011;74238;50.566;7.262;2024-01-30T06:54:02;19.20;;;11.77;;
84135;SDS011;74238;50.566;7.262;2024-01-30T06:56:28;21.15;;;11.00;;
84135;SDS011;74238;50.566;7.262;2024-01-30T06:58:53;18.65;;;10.82;;
84135;SDS011;74238;50.566;7.262;2024-01-30T07:01:18;17.77;;;11.38;;
84135;SDS011;74238;50.566;7.262;2024-01-30T07:03:44;18.98;;;11.55;;
84135;SDS011;74238;50.566;7.262;2024-01-30T07:06:09;19.45;;;10.63;;
84135;SDS011;74238;50.566;7.262;2024-01-30T07:08:36;21.27;;;12.02;;
84135;SDS011;74238;50.566;7.262;2024-01-30T07:11:02;18.40;;;11.02;;
84135;SDS011;74238;50.566;7.262;2024-01-30T07:13:27;20.05;;;11.80;;
84135;SDS011;74238;50.566;7.262;2024-01-30T07:15:53;17.63;;;11.73;;
84135;SDS011;74238;50.566;7.262;2024-01-30T07:18:19;18.33;;;12.35;;
84135;SDS011;74238;50.566;7.262;2024-01-30T07:20:44;14.70;;;10.38;;
84135;SDS011;74238;50.566;7.262;2024-01-30T07:23:13;17.27;;;11.40;;
84135;SDS011;74238;50.566;7.262;2024-01-30T07:25:41;16.67;;;12.18;;
84135;SDS011;74238;50.566;7.262;2024-01-30T07:28:07;22.95;;;12.10;;
84135;SDS011;74238;50.566;7.262;2024-01-30T07:30:34;17.83;;;11.68;;
84135;SDS011;74238;50.566;7.262;2024-01-30T07:32:59;19.02;;;11.35;;
84135;SDS011;74238;50.566;7.262;2024-01-30T07:35:25;19.60;;;12.52;;
84135;SDS011;74238;50.566;7.262;2024-01-30T07:37:50;20.45;;;11.55;;
84135;SDS011;74238;50.566;7.262;2024-01-30T07:40:15;20.73;;;12.20;;
84135;SDS011;74238;50.566;7.262;2024-01-30T07:42:42;19.17;;;11.52;;
84135;SDS011;74238;50.566;7.262;2024-01-30T07:45:07;19.55;;;11.55;;
84135;SDS011;74238;50.566;7.262;2024-01-30T07:47:33;17.98;;;12.00;;
84135;SDS011;74238;50.566;7.262;2024-01-30T07:49:58;21.40;;;11.52;;
84135;SDS011;74238;50.566;7.262;2024-01-30T07:52:24;19.35;;;12.20;;
84135;SDS011;74238;50.566;7.262;2024-01-30T07:54:49;20.02;;;11.63;;
84135;SDS011;74238;50.566;7.262;2024-01-30T07:57:15;17.20;;;11.75;;
84135;SDS011;74238;50.566;7.262;2024-01-30T07:59:42;19.15;;;11.23;;
84135;SDS011;74238;50.566;7.262;2024-01-30T08:02:11;22.58;;;13.02;;
84135;SDS011;74238;50.566;7.262;2024-01-30T08:04:37;21.17;;;11.43;;
84135;SDS011;74238;50.566;7.262;2024-01-30T08:07:02;20.48;;;11.40;;
84135;SDS011;74238;50.566;7.262;2024-01-30T08:09:27;19.75;;;12.20;;
84135;SDS011;74238;50.566;7.262;2024-01-30T08:11:53;20.58;;;12.18;;
84135;SDS011;74238;50.566;7.262;2024-01-30T08:14:18;18.10;;;10.25;;
84135;SDS011;74238;50.566;7.262;2024-01-30T08:16:44;17.08;;;12.70;;
84135;SDS011;74238;50.566;7.262;2024-01-30T08:19:09;18.98;;;11.43;;
84135;SDS011;74238;50.566;7.262;2024-01-30T08:21:34;18.58;;;10.98;;
84135;SDS011;74238;50.566;7.262;2024-01-30T08:26:29;18.52;;;12.00;;
84135;SDS011;74238;50.566;7.262;2024-01-30T08:28:55;15.35;;;10.13;;
84135;SDS011;74238;50.566;7.262;2024-01-30T08:31:20;20.88;;;11.95;;
84135;SDS011;74238;50.566;7.262;2024-01-30T08:33:46;22.10;;;12.35;;
84135;SDS011;74238;50.566;7.262;2024-01-30T08:36:11;20.88;;;12.52;;
84135;SDS011;74238;50.566;7.262;2024-01-30T08:38:36;24.08;;;12.27;;
84135;SDS011;74238;50.566;7.262;2024-01-30T08:41:01;18.42;;;12.38;;
84135;SDS011;74238;50.566;7.262;2024-01-30T08:43:27;20.05;;;11.88;;
84135;SDS011;74238;50.566;7.262;2024-01-30T08:45:53;18.75;;;11.25;;
84135;SDS011;74238;50.566;7.262;2024-01-30T08:48:18;19.75;;;14.07;;
84135;SDS011;74238;50.566;7.262;2024-01-30T08:50:44;20.00;;;13.13;;
84135;SDS011;74238;50.566;7.262;2024-01-30T08:53:09;17.20;;;10.80;;
84135;SDS011;74238;50.566;7.262;2024-01-30T08:55:34;23.77;;;12.85;;
84135;SDS011;74238;50.566;7.262;2024-01-30T08:57:59;21.63;;;13.45;;
84135;SDS011;74238;50.566;7.262;2024-01-30T09:00:25;19.83;;;12.30;;
84135;SDS011;74238;50.566;7.262;2024-01-30T09:02:50;17.55;;;12.00;;
84135;SDS011;74238;50.566;7.262;2024-01-30T09:05:15;20.10;;;11.57;;
84135;SDS011;74238;50.566;7.262;2024-01-30T09:07:41;19.60;;;12.05;;
84135;SDS011;74238;50.566;7.262;2024-01-30T09:10:06;20.30;;;12.98;;
84135;SDS011;74238;50.566;7.262;2024-01-30T09:12:32;18.83;;;12.27;;
84135;SDS011;74238;50.566;7.262;2024-01-30T09:14:57;17.95;;;11.43;;
84135;SDS011;74238;50.566;7.262;2024-01-30T09:17:23;14.43;;;9.73;;
84135;SDS011;74238;50.566;7.262;2024-01-30T09:19:48;14.27;;;11.02;;
84135;SDS011;74238;50.566;7.262;2024-01-30T09:22:14;16.65;;;11.65;;
84135;SDS011;74238;50.566;7.262;2024-01-30T09:24:39;16.17;;;10.35;;
84135;SDS011;74238;50.566;7.262;2024-01-30T09:27:05;15.43;;;10.85;;
84135;SDS011;74238;50.566;7.262;2024-01-30T09:29:31;21.80;;;12.60;;
84135;SDS011;74238;50.566;7.262;2024-01-30T09:31:59;15.27;;;9.88;;
84135;SDS011;74238;50.566;7.262;2024-01-30T09:34:24;17.98;;;11.60;;
84135;SDS011;74238;50.566;7.262;2024-01-30T09:36:50;17.92;;;11.85;;
84135;SDS011;74238;50.566;7.262;2024-01-30T09:39:15;18.48;;;11.73;;
84135;SDS011;74238;50.566;7.262;2024-01-30T09:41:54;21.95;;;11.25;;
84135;SDS011;74238;50.566;7.262;2024-01-30T09:44:28;17.67;;;11.63;;
84135;SDS011;74238;50.566;7.262;2024-01-30T09:46:55;17.38;;;10.50;;
84135;SDS011;74238;50.566;7.262;2024-01-30T09:49:23;17.40;;;10.75;;
84135;SDS011;74238;50.566;7.262;2024-01-30T09:51:50;17.15;;;12.40;;
84135;SDS011;74238;50.566;7.262;2024-01-30T09:54:15;16.33;;;11.00;;
84135;SDS011;74238;50.566;7.262;2024-01-30T09:56:41;22.92;;;11.35;;
84135;SDS011;74238;50.566;7.262;2024-01-30T09:59:07;18.65;;;11.02;;
84135;SDS011;74238;50.566;7.262;2024-01-30T10:01:34;21.33;;;11.00;;
84135;SDS011;74238;50.566;7.262;2024-01-30T10:04:00;17.75;;;10.35;;
84135;SDS011;74238;50.566;7.262;2024-01-30T10:06:25;16.48;;;10.07;;
84135;SDS011;74238;50.566;7.262;2024-01-30T10:08:51;16.10;;;11.25;;
84135;SDS011;74238;50.566;7.262;2024-01-30T10:11:17;17.13;;;11.30;;
84135;SDS011;74238;50.566;7.262;2024-01-30T10:13:42;14.60;;;10.52;;
84135;SDS011;74238;50.566;7.262;2024-01-30T10:16:08;15.65;;;10.80;;
84135;SDS011;74238;50.566;7.262;2024-01-30T10:18:33;15.57;;;9.48;;
84135;SDS011;74238;50.566;7.262;2024-01-30T10:20:59;16.63;;;10.48;;
84135;SDS011;74238;50.566;7.262;2024-01-30T10:23:25;15.65;;;11.82;;
84135;SDS011;74238;50.566;7.262;2024-01-30T10:25:51;18.27;;;11.85;;
84135;SDS011;74238;50.566;7.262;2024-01-30T10:30:42;16.10;;;10.10;;
84135;SDS011;74238;50.566;7.262;2024-01-30T10:33:07;17.35;;;9.65;;
84135;SDS011;74238;50.566;7.262;2024-01-30T10:35:33;15.98;;;10.40;;
84135;SDS011;74238;50.566;7.262;2024-01-30T10:37:58;16.80;;;9.77;;
84135;SDS011;74238;50.566;7.262;2024-01-30T10:40:27;15.50;;;10.45;;
84135;SDS011;74238;50.566;7.262;2024-01-30T10:42:53;17.08;;;11.32;;
84135;SDS011;74238;50.566;7.262;2024-01-30T10:45:20;18.65;;;10.90;;
84135;SDS011;74238;50.566;7.262;2024-01-30T10:47:50;17.67;;;10.20;;
84135;SDS011;74238;50.566;7.262;2024-01-30T10:50:19;14.77;;;9.73;;
84135;SDS011;74238;50.566;7.262;2024-01-30T10:52:45;13.35;;;10.20;;
84135;SDS011;74238;50.566;7.262;2024-01-30T10:55:12;17.38;;;10.23;;
84135;SDS011;74238;50.566;7.262;2024-01-30T10:57:38;18.58;;;10.40;;
84135;SDS011;74238;50.566;7.262;2024-01-30T11:00:10;14.95;;;10.02;;
84135;SDS011;74238;50.566;7.262;2024-01-30T11:02:44;15.88;;;10.38;;
84135;SDS011;74238;50.566;7.262;2024-01-30T11:05:11;20.35;;;9.13;;
84135;SDS011;74238;50.566;7.262;2024-01-30T11:07:38;16.25;;;9.80;;
84135;SDS011;74238;50.566;7.262;2024-01-30T11:10:04;14.30;;;9.75;;
84135;SDS011;74238;50.566;7.262;2024-01-30T11:12:37;12.07;;;8.20;;
84135;SDS011;74238;50.566;7.262;2024-01-30T11:15:15;15.63;;;10.07;;
84135;SDS011;74238;50.566;7.262;2024-01-30T11:17:42;11.30;;;8.18;;
84135;SDS011;74238;50.566;7.262;2024-01-30T11:20:12;19.08;;;9.73;;
84135;SDS011;74238;50.566;7.262;2024-01-30T11:22:41;14.75;;;9.13;;
84135;SDS011;74238;50.566;7.262;2024-01-30T11:27:43;22.13;;;8.77;;
84135;SDS011;74238;50.566;7.262;2024-01-30T11:32:35;16.85;;;8.75;;
84135;SDS011;74238;50.566;7.262;2024-01-30T11:35:03;14.43;;;8.73;;
84135;SDS011;74238;50.566;7.262;2024-01-30T11:37:31;16.90;;;10.02;;
84135;SDS011;74238;50.566;7.262;2024-01-30T11:39:56;14.02;;;8.93;;
84135;SDS011;74238;50.566;7.262;2024-01-30T11:42:23;11.95;;;8.85;;
84135;SDS011;74238;50.566;7.262;2024-01-30T11:44:52;16.30;;;9.13;;
84135;SDS011;74238;50.566;7.262;2024-01-30T11:47:18;13.50;;;9.70;;
84135;SDS011;74238;50.566;7.262;2024-01-30T11:49:43;13.73;;;9.85;;
84135;SDS011;74238;50.566;7.262;2024-01-30T11:52:09;14.88;;;10.02;;
84135;SDS011;74238;50.566;7.262;2024-01-30T11:54:35;15.10;;;8.77;;
84135;SDS011;74238;50.566;7.262;2024-01-30T11:57:01;17.10;;;9.48;;
84135;SDS011;74238;50.566;7.262;2024-01-30T11:59:26;17.20;;;9.73;;
84135;SDS011;74238;50.566;7.262;2024-01-30T12:01:51;14.45;;;10.18;;
84135;SDS011;74238;50.566;7.262;2024-01-30T12:04:17;12.63;;;9.27;;
84135;SDS011;74238;50.566;7.262;2024-01-30T12:06:43;12.27;;;7.88;;
84135;SDS011;74238;50.566;7.262;2024-01-30T12:09:09;13.32;;;8.80;;
84135;SDS011;74238;50.566;7.262;2024-01-30T12:11:46;16.95;;;10.23;;
84135;SDS011;74238;50.566;7.262;2024-01-30T12:14:12;13.93;;;8.80;;
84135;SDS011;74238;50.566;7.262;2024-01-30T12:16:39;16.95;;;9.60;;
84135;SDS011;74238;50.566;7.262;2024-01-30T12:19:05;14.90;;;9.55;;
84135;SDS011;74238;50.566;7.262;2024-01-30T12:21:30;14.73;;;10.38;;
84135;SDS011;74238;50.566;7.262;2024-01-30T12:23:59;16.90;;;10.75;;
84135;SDS011;74238;50.566;7.262;2024-01-30T12:26:25;18.42;;;10.00;;
84135;SDS011;74238;50.566;7.262;2024-01-30T12:28:53;13.95;;;9.30;;
84135;SDS011;74238;50.566;7.262;2024-01-30T12:31:25;13.73;;;9.80;;
84135;SDS011;74238;50.566;7.262;2024-01-30T12:33:52;14.45;;;9.27;;
84135;SDS011;74238;50.566;7.262;2024-01-30T12:36:17;15.35;;;9.27;;
84135;SDS011;74238;50.566;7.262;2024-01-30T12:38:43;15.05;;;8.55;;
84135;SDS011;74238;50.566;7.262;2024-01-30T12:41:09;13.60;;;9.20;;
84135;SDS011;74238;50.566;7.262;2024-01-30T12:46:01;14.50;;;8.05;;
84135;SDS011;74238;50.566;7.262;2024-01-30T12:48:27;15.18;;;8.95;;
84135;SDS011;74238;50.566;7.262;2024-01-30T12:50:54;14.48;;;9.07;;
84135;SDS011;74238;50.566;7.262;2024-01-30T12:53:21;11.65;;;8.82;;
84135;SDS011;74238;50.566;7.262;2024-01-30T12:55:47;15.40;;;8.57;;
84135;SDS011;74238;50.566;7.262;2024-01-30T12:58:12;17.38;;;8.63;;
84135;SDS011;74238;50.566;7.262;2024-01-30T13:00:38;13.52;;;7.88;;
84135;SDS011;74238;50.566;7.262;2024-01-30T13:03:04;15.18;;;8.68;;
84135;SDS011;74238;50.566;7.262;2024-01-30T13:05:29;14.18;;;9.48;;
84135;SDS011;74238;50.566;7.262;2024-01-30T13:07:55;14.77;;;7.93;;
84135;SDS011;74238;50.566;7.262;2024-01-30T13:10:22;18.77;;;9.38;;
84135;SDS011;74238;50.566;7.262;2024-01-30T13:12:48;12.95;;;9.35;;
84135;SDS011;74238;50.566;7.262;2024-01-30T13:15:13;19.58;;;8.93;;
84135;SDS011;74238;50.566;7.262;2024-01-30T13:17:39;16.38;;;10.13;;
84135;SDS011;74238;50.566;7.262;2024-01-30T13:20:07;15.95;;;11.00;;
84135;SDS011;74238;50.566;7.262;2024-01-30T13:22:33;15.68;;;8.70;;
84135;SDS011;74238;50.566;7.262;2024-01-30T13:24:59;15.23;;;8.60;;
84135;SDS011;74238;50.566;7.262;2024-01-30T13:27:24;13.50;;;8.52;;
84135;SDS011;74238;50.566;7.262;2024-01-30T13:29:50;15.57;;;9.60;;
84135;SDS011;74238;50.566;7.262;2024-01-30T13:32:16;15.15;;;9.63;;
84135;SDS011;74238;50.566;7.262;2024-01-30T13:34:42;22.02;;;10.35;;
84135;SDS011;74238;50.566;7.262;2024-01-30T13:37:08;13.38;;;9.00;;
84135;SDS011;74238;50.566;7.262;2024-01-30T13:39:33;17.70;;;9.40;;
84135;SDS011;74238;50.566;7.262;2024-01-30T13:42:00;16.20;;;10.27;;
84135;SDS011;74238;50.566;7.262;2024-01-30T13:44:25;15.02;;;9.60;;
84135;SDS011;74238;50.566;7.262;2024-01-30T13:46:51;14.73;;;9.32;;
84135;SDS011;74238;50.566;7.262;2024-01-30T13:49:16;16.35;;;9.38;;
84135;SDS011;74238;50.566;7.262;2024-01-30T13:51:42;14.80;;;8.90;;
84135;SDS011;74238;50.566;7.262;2024-01-30T13:54:08;15.73;;;8.45;;
84135;SDS011;74238;50.566;7.262;2024-01-30T13:56:33;12.80;;;8.63;;
84135;SDS011;74238;50.566;7.262;2024-01-30T13:58:59;12.07;;;7.63;;
84135;SDS011;74238;50.566;7.262;2024-01-30T14:01:26;12.05;;;7.60;;
84135;SDS011;74238;50.566;7.262;2024-01-30T14:03:52;13.65;;;8.05;;
84135;SDS011;74238;50.566;7.262;2024-01-30T14:06:17;10.45;;;7.28;;
84135;SDS011;74238;50.566;7.262;2024-01-30T14:08:43;10.20;;;8.07;;
84135;SDS011;74238;50.566;7.262;2024-01-30T14:11:09;11.70;;;8.27;;
84135;SDS011;74238;50.566;7.262;2024-01-30T14:13:34;11.10;;;8.27;;
84135;SDS011;74238;50.566;7.262;2024-01-30T14:16:00;11.70;;;7.53;;
84135;SDS011;74238;50.566;7.262;2024-01-30T14:18:26;12.68;;;7.38;;
84135;SDS011;74238;50.566;7.262;2024-01-30T14:20:52;12.70;;;7.57;;
84135;SDS011;74238;50.566;7.262;2024-01-30T14:23:19;14.40;;;7.78;;
84135;SDS011;74238;50.566;7.262;2024-01-30T14:25:45;10.38;;;6.93;;
84135;SDS011;74238;50.566;7.262;2024-01-30T14:28:11;10.63;;;8.13;;
84135;SDS011;74238;50.566;7.262;2024-01-30T14:30:37;10.68;;;7.15;;